Time;durP1;ratioP1;P1;durP2;ratioP2;P2;SDS_P1;SDS_P2;PMS_P1;PMS_P2;Temp;Humidity;BMP_temperature;BMP_pressure;BME280_temperature;BME280_humidity;BME280_pressure;Samples;Min_cycle;Max_cycle;Signal;HPM_P1;HPM_P2
2022/10/29 00:00:51;;;;;;;7.13;2.70;;;;;;;;;;5073730;28;20387;-81
2022/10/29 00:03:18;;;;;;;4.78;2.25;;;;;;;;;;5074067;28;20082;-81
2022/10/29 00:05:43;;;;;;;6.68;2.63;;;;;;;;;;5073486;28;20116;-80
2022/10/29 00:08:08;;;;;;;6.35;2.38;;;;;;;;;;5056728;28;20116;-81
2022/10/29 00:10:34;;;;;;;7.35;2.67;;;;;;;;;;5056773;28;20051;-81
2022/10/29 00:13:01;;;;;;;5.15;2.40;;;;;;;;;;5074960;28;20033;-79
2022/10/29 00:15:26;;;;;;;6.70;2.70;;;;;;;;;;5073394;28;20115;-80
2022/10/29 00:17:52;;;;;;;5.80;2.50;;;;;;;;;;5073608;28;20060;-80
2022/10/29 00:20:19;;;;;;;7.18;2.40;;;;;;;;;;5056439;28;20391;-80
2022/10/29 00:22:45;;;;;;;5.32;2.33;;;;;;;;;;5073094;28;20112;-80
2022/10/29 00:25:10;;;;;;;6.38;2.22;;;;;;;;;;5074323;28;20171;-80
2022/10/29 00:27:36;;;;;;;4.28;2.00;;;;;;;;;;5073722;28;20356;-80
2022/10/29 00:30:01;;;;;;;9.38;2.55;;;;;;;;;;5073146;28;20040;-80
2022/10/29 00:32:26;;;;;;;7.32;2.50;;;;;;;;;;5072882;28;20035;-80
2022/10/29 00:34:52;;;;;;;5.80;2.72;;;;;;;;;;5039696;28;20028;-80
2022/10/29 00:37:17;;;;;;;5.00;2.10;;;;;;;;;;5074084;28;20115;-80
2022/10/29 00:39:42;;;;;;;7.03;2.53;;;;;;;;;;5073043;28;20123;-80
2022/10/29 00:42:16;;;;;;;7.03;2.55;;;;;;;;;;5072361;28;20028;-79
2022/10/29 00:44:42;;;;;;;8.15;2.90;;;;;;;;;;5072683;28;20024;-80
2022/10/29 00:47:23;;;;;;;8.10;2.67;;;;;;;;;;5056025;28;20039;-80
2022/10/29 00:49:55;;;;;;;6.05;2.60;;;;;;;;;;5055968;28;20055;-80
2022/10/29 00:52:22;;;;;;;7.47;3.17;;;;;;;;;;5055950;28;20016;-80
2022/10/29 00:54:47;;;;;;;6.43;2.33;;;;;;;;;;5055905;28;20021;-80
2022/10/29 00:57:17;;;;;;;5.55;2.70;;;;;;;;;;5055746;28;20032;-81
2022/10/29 00:59:43;;;;;;;6.60;2.58;;;;;;;;;;5072820;28;20047;-81
2022/10/29 01:02:09;;;;;;;9.15;2.83;;;;;;;;;;5072480;28;20017;-80
2022/10/29 01:04:35;;;;;;;6.00;2.50;;;;;;;;;;5073682;28;20033;-81
2022/10/29 01:07:00;;;;;;;6.68;2.70;;;;;;;;;;5072701;28;20037;-80
2022/10/29 01:09:26;;;;;;;8.20;2.42;;;;;;;;;;5072452;28;20387;-80
2022/10/29 01:12:25;;;;;;;7.25;2.60;;;;;;;;;;5055557;28;20121;-80
2022/10/29 01:15:13;;;;;;;5.65;2.35;;;;;;;;;;5073834;28;20031;-80
2022/10/29 01:18:09;;;;;;;7.45;2.58;;;;;;;;;;5072828;28;20494;-81
2022/10/29 01:21:12;;;;;;;4.93;2.50;;;;;;;;;;5073600;28;20474;-81
2022/10/29 01:24:09;;;;;;;5.88;2.38;;;;;;;;;;5072111;28;20474;-80
2022/10/29 01:27:02;;;;;;;9.48;2.70;;;;;;;;;;5073568;28;20032;-80
2022/10/29 01:29:54;;;;;;;6.25;2.67;;;;;;;;;;5072089;28;20017;-80
2022/10/29 01:32:28;;;;;;;6.07;2.40;;;;;;;;;;5073524;28;20024;-80
2022/10/29 01:35:01;;;;;;;4.68;2.10;;;;;;;;;;5055235;28;20559;-80
2022/10/29 01:37:50;;;;;;;6.88;2.38;;;;;;;;;;5073341;28;20099;-80
2022/10/29 01:40:24;;;;;;;5.90;2.47;;;;;;;;;;5073333;28;20035;-81
2022/10/29 01:42:55;;;;;;;7.38;2.58;;;;;;;;;;5073069;28;20061;-80
2022/10/29 01:45:52;;;;;;;5.07;2.45;;;;;;;;;;5071924;28;20021;-81
2022/10/29 01:48:29;;;;;;;6.65;2.47;;;;;;;;;;5072395;28;20037;-80
2022/10/29 01:50:57;;;;;;;5.55;2.53;;;;;;;;;;5071943;28;20028;-80
2022/10/29 01:53:23;;;;;;;7.38;2.65;;;;;;;;;;5071872;28;20021;-80
2022/10/29 01:55:48;;;;;;;4.72;2.30;;;;;;;;;;5072191;28;20095;-80
2022/10/29 01:58:14;;;;;;;7.18;2.60;;;;;;;;;;5054999;28;20028;-81
2022/10/29 02:01:05;;;;;;;9.25;2.60;;;;;;;;;;5055017;28;20116;-80
2022/10/29 02:03:52;;;;;;;6.15;2.33;;;;;;;;;;5058615;28;20068;-81
2022/10/29 02:06:36;;;;;;;6.47;2.13;;;;;;;;;;5072930;28;20029;-81
2022/10/29 02:09:20;;;;;;;8.00;2.90;;;;;;;;;;5072916;28;20020;-80
2022/10/29 02:11:59;;;;;;;;;;;;;;;;;;5055373;28;20041;-80
2022/10/29 02:14:42;;;;;;;8.35;2.38;;;;;;;;;;5071948;28;20377;-80
2022/10/29 02:17:07;;;;;;;3.83;1.90;;;;;;;;;;5055142;28;20494;-80
2022/10/29 02:19:34;;;;;;;9.07;2.38;;;;;;;;;;5073271;28;20025;-80
2022/10/29 02:21:59;;;;;;;4.43;2.35;;;;;;;;;;5071416;28;20028;-81
2022/10/29 02:24:25;;;;;;;6.65;2.28;;;;;;;;;;5072988;28;20486;-81
2022/10/29 02:26:51;;;;;;;8.52;2.72;;;;;;;;;;5071584;28;20028;-80
2022/10/29 02:29:16;;;;;;;3.92;2.17;;;;;;;;;;5071785;28;20039;-81
2022/10/29 02:31:42;;;;;;;9.07;2.50;;;;;;;;;;5071504;28;20033;-80
2022/10/29 02:34:07;;;;;;;6.55;2.50;;;;;;;;;;5071274;28;20024;-80
2022/10/29 02:36:33;;;;;;;6.53;2.30;;;;;;;;;;5054679;28;20479;-80
2022/10/29 02:38:58;;;;;;;5.32;2.30;;;;;;;;;;5072623;28;20093;-80
2022/10/29 02:41:23;;;;;;;4.30;2.00;;;;;;;;;;5071202;28;20047;-80
2022/10/29 02:43:49;;;;;;;6.50;2.38;;;;;;;;;;5070963;28;20182;-80
2022/10/29 02:46:20;;;;;;;6.05;2.00;;;;;;;;;;5054607;28;20036;-80
2022/10/29 02:48:45;;;;;;;5.40;1.88;;;;;;;;;;5071926;28;20085;-80
2022/10/29 02:51:11;;;;;;;5.85;2.50;;;;;;;;;;5074389;28;20530;-79
2022/10/29 02:53:36;;;;;;;7.10;2.28;;;;;;;;;;5058126;28;20372;-80
2022/10/29 02:56:02;;;;;;;7.80;2.50;;;;;;;;;;5075171;28;20482;-80
2022/10/29 02:58:28;;;;;;;6.25;2.33;;;;;;;;;;5058101;28;20074;-80
2022/10/29 03:00:53;;;;;;;7.25;2.25;;;;;;;;;;5074643;28;20114;-80
2022/10/29 03:03:19;;;;;;;5.30;2.30;;;;;;;;;;5075834;28;20098;-80
2022/10/29 03:05:44;;;;;;;5.47;2.67;;;;;;;;;;5074719;28;20043;-80
2022/10/29 03:08:10;;;;;;;5.97;2.53;;;;;;;;;;5075846;28;20037;-80
2022/10/29 03:10:35;;;;;;;5.00;2.17;;;;;;;;;;5074536;28;20119;-78
2022/10/29 03:13:00;;;;;;;5.50;2.30;;;;;;;;;;5075174;28;20480;-80
2022/10/29 03:15:26;;;;;;;5.70;2.30;;;;;;;;;;5075394;28;20446;-80
2022/10/29 03:17:51;;;;;;;4.65;2.22;;;;;;;;;;5074817;28;20047;-80
2022/10/29 03:20:17;;;;;;;5.40;2.22;;;;;;;;;;5058018;28;20040;-80
2022/10/29 03:22:42;;;;;;;5.75;2.50;;;;;;;;;;5058335;28;20032;-80
2022/10/29 03:25:08;;;;;;;5.22;2.08;;;;;;;;;;5076089;28;20059;-81
2022/10/29 03:27:44;;;;;;;5.90;2.30;;;;;;;;;;5074961;28;20029;-81
2022/10/29 03:30:14;;;;;;;8.13;2.60;;;;;;;;;;5057668;28;20024;-80
2022/10/29 03:32:40;;;;;;;5.38;2.42;;;;;;;;;;5074366;28;20383;-80
2022/10/29 03:35:07;;;;;;;5.68;2.72;;;;;;;;;;5057592;28;20114;-80
2022/10/29 03:37:33;;;;;;;6.43;2.40;;;;;;;;;;5057721;28;20406;-80
2022/10/29 03:39:58;;;;;;;4.43;2.10;;;;;;;;;;5076052;28;20031;-80
2022/10/29 03:42:23;;;;;;;4.68;2.28;;;;;;;;;;5056979;28;20387;-80
2022/10/29 03:44:49;;;;;;;9.02;2.00;;;;;;;;;;5075319;28;20481;-80
2022/10/29 03:47:14;;;;;;;5.03;2.20;;;;;;;;;;5073971;28;20028;-80
2022/10/29 03:49:39;;;;;;;5.65;2.22;;;;;;;;;;5057207;28;20498;-80
2022/10/29 03:52:05;;;;;;;7.13;2.35;;;;;;;;;;5057026;28;20035;-80
2022/10/29 03:54:30;;;;;;;4.18;1.92;;;;;;;;;;5057032;28;20036;-80
2022/10/29 03:56:55;;;;;;;4.10;2.35;;;;;;;;;;5075009;28;20024;-80
2022/10/29 03:59:21;;;;;;;4.38;2.05;;;;;;;;;;5073579;28;20078;-80
2022/10/29 04:01:46;;;;;;;5.90;2.40;;;;;;;;;;5075364;28;20025;-80
2022/10/29 04:04:11;;;;;;;5.97;2.33;;;;;;;;;;5073609;28;20094;-80
2022/10/29 04:06:37;;;;;;;6.82;2.50;;;;;;;;;;5056990;28;20115;-80
2022/10/29 04:09:02;;;;;;;4.80;2.53;;;;;;;;;;5073508;28;20028;-81
2022/10/29 04:11:28;;;;;;;5.57;2.60;;;;;;;;;;5057171;28;20112;-81
2022/10/29 04:13:53;;;;;;;5.43;2.42;;;;;;;;;;5073566;28;20113;-81
2022/10/29 04:16:18;;;;;;;4.13;1.98;;;;;;;;;;5073402;28;20040;-80
2022/10/29 04:18:48;;;;;;;3.90;2.10;;;;;;;;;;5073426;28;20040;-81
2022/10/29 04:21:13;;;;;;;4.07;2.20;;;;;;;;;;5073389;28;20489;-81
2022/10/29 04:23:39;;;;;;;8.50;2.20;;;;;;;;;;5073287;28;20116;-80
2022/10/29 04:26:04;;;;;;;4.80;2.42;;;;;;;;;;5073273;28;20043;-80
2022/10/29 04:28:29;;;;;;;5.43;2.28;;;;;;;;;;5073167;28;20033;-80
2022/10/29 04:30:55;;;;;;;4.07;2.38;;;;;;;;;;5073283;28;20082;-80
2022/10/29 04:33:20;;;;;;;3.83;2.45;;;;;;;;;;5074383;28;20026;-81
2022/10/29 04:35:54;;;;;;;5.13;2.33;;;;;;;;;;5074414;28;20081;-81
2022/10/29 04:38:20;;;;;;;5.45;2.20;;;;;;;;;;5056780;28;20502;-80
2022/10/29 04:40:45;;;;;;;5.53;2.30;;;;;;;;;;5073346;28;20565;-80
2022/10/29 04:43:10;;;;;;;4.60;2.50;;;;;;;;;;5072657;28;20135;-80
2022/10/29 04:45:36;;;;;;;6.03;2.33;;;;;;;;;;5056254;28;20028;-80
2022/10/29 04:48:02;;;;;;;4.90;2.42;;;;;;;;;;5073537;28;20426;-80
2022/10/29 04:50:29;;;;;;;4.18;2.30;;;;;;;;;;5056165;28;20024;-80
2022/10/29 04:53:02;;;;;;;4.05;2.20;;;;;;;;;;5074363;28;20027;-81
2022/10/29 04:55:28;;;;;;;4.78;2.28;;;;;;;;;;5074434;28;20038;-80
2022/10/29 04:57:53;;;;;;;3.80;2.35;;;;;;;;;;5074375;28;20111;-81
2022/10/29 05:00:19;;;;;;;2.53;1.90;;;;;;;;;;5074149;28;20029;-80
2022/10/29 05:02:52;;;;;;;5.47;2.33;;;;;;;;;;5056775;28;20029;-80
2022/10/29 05:05:19;;;;;;;5.30;2.38;;;;;;;;;;5073289;28;20415;-80
2022/10/29 05:07:44;;;;;;;4.22;2.00;;;;;;;;;;5072802;28;20493;-80
2022/10/29 05:10:10;;;;;;;5.65;2.10;;;;;;;;;;5056125;28;20024;-81
2022/10/29 05:12:36;;;;;;;2.17;1.98;;;;;;;;;;5075005;28;20044;-81
2022/10/29 05:15:01;;;;;;;2.88;2.20;;;;;;;;;;5072898;28;20032;-81
2022/10/29 05:17:26;;;;;;;3.15;2.05;;;;;;;;;;5072799;28;20041;-81
2022/10/29 05:19:52;;;;;;;3.63;2.50;;;;;;;;;;5074084;28;20032;-81
2022/10/29 05:22:17;;;;;;;2.53;2.03;;;;;;;;;;5074309;28;20085;-81
2022/10/29 05:24:42;;;;;;;3.22;2.28;;;;;;;;;;5074472;28;20067;-81
2022/10/29 05:27:08;;;;;;;3.10;2.10;;;;;;;;;;5072498;28;20033;-81
2022/10/29 05:29:33;;;;;;;3.45;2.20;;;;;;;;;;5072967;28;20017;-81
2022/10/29 05:31:59;;;;;;;3.60;2.28;;;;;;;;;;5072748;28;20040;-81
2022/10/29 05:34:24;;;;;;;3.72;2.13;;;;;;;;;;5055719;28;20036;-81
2022/10/29 05:36:49;;;;;;;3.88;2.53;;;;;;;;;;5039402;28;20032;-81
2022/10/29 05:39:15;;;;;;;3.30;2.20;;;;;;;;;;5073722;28;20035;-81
2022/10/29 05:41:40;;;;;;;5.07;2.60;;;;;;;;;;5074146;28;20062;-80
2022/10/29 05:44:06;;;;;;;4.65;2.30;;;;;;;;;;5072228;28;20055;-81
2022/10/29 05:46:31;;;;;;;3.80;2.42;;;;;;;;;;5072734;28;20048;-80
2022/10/29 05:48:56;;;;;;;2.53;2.10;;;;;;;;;;5072956;28;20031;-80
2022/10/29 05:51:22;;;;;;;5.70;2.40;;;;;;;;;;5056679;28;20502;-80
2022/10/29 05:53:47;;;;;;;2.38;1.90;;;;;;;;;;5073517;28;20364;-80
2022/10/29 05:56:13;;;;;;;3.50;2.17;;;;;;;;;;5073538;28;20039;-80
2022/10/29 05:58:38;;;;;;;5.38;2.45;;;;;;;;;;5038931;28;20032;-81
2022/10/29 06:01:10;;;;;;;3.20;2.58;;;;;;;;;;5072564;28;20029;-81
2022/10/29 06:03:36;;;;;;;6.95;2.17;;;;;;;;;;5072314;28;20100;-81
2022/10/29 06:06:01;;;;;;;5.25;2.42;;;;;;;;;;5055154;28;20029;-82
2022/10/29 06:08:27;;;;;;;3.20;2.28;;;;;;;;;;5073244;28;20035;-80
2022/10/29 06:10:52;;;;;;;3.53;2.10;;;;;;;;;;5073619;28;20036;-80
2022/10/29 06:13:19;;;;;;;2.80;2.10;;;;;;;;;;5038624;28;20031;-80
2022/10/29 06:15:46;;;;;;;6.90;2.70;;;;;;;;;;5072545;28;20025;-81
2022/10/29 06:18:11;;;;;;;3.58;2.10;;;;;;;;;;5074365;28;20077;-81
2022/10/29 06:20:38;;;;;;;4.25;2.65;;;;;;;;;;5075373;28;20104;-81
2022/10/29 06:23:03;;;;;;;3.40;2.15;;;;;;;;;;5072761;28;20123;-81
2022/10/29 06:25:29;;;;;;;3.58;2.15;;;;;;;;;;5074848;28;20064;-81
2022/10/29 06:28:01;;;;;;;7.85;2.85;;;;;;;;;;5079537;28;20060;-81
2022/10/29 06:30:28;;;;;;;7.80;2.42;;;;;;;;;;5078567;28;20029;-81
2022/10/29 06:32:53;;;;;;;3.30;2.58;;;;;;;;;;5060201;28;20017;-81
2022/10/29 06:35:19;;;;;;;13.43;4.18;;;;;;;;;;5077197;28;20485;-82
2022/10/29 06:37:44;;;;;;;24.17;5.95;;;;;;;;;;5078183;28;20030;-83
2022/10/29 06:40:10;;;;;;;9.75;4.25;;;;;;;;;;5076973;28;20035;-81
2022/10/29 06:42:35;;;;;;;10.40;4.47;;;;;;;;;;5058850;28;20041;-79
2022/10/29 06:45:00;;;;;;;12.95;4.10;;;;;;;;;;5076203;28;20036;-82
2022/10/29 06:47:26;;;;;;;9.75;3.90;;;;;;;;;;5076327;28;20136;-82
2022/10/29 06:49:51;;;;;;;10.48;4.15;;;;;;;;;;5059364;28;20086;-79
2022/10/29 06:52:16;;;;;;;9.10;3.85;;;;;;;;;;5078814;28;20028;-82
2022/10/29 06:54:42;;;;;;;19.58;4.50;;;;;;;;;;5081112;28;20475;-81
2022/10/29 06:57:07;;;;;;;19.70;5.18;;;;;;;;;;5049676;28;20032;-81
2022/10/29 06:59:32;;;;;;;10.52;4.18;;;;;;;;;;5080379;28;20113;-82
2022/10/29 07:01:58;;;;;;;12.82;3.85;;;;;;;;;;5059411;28;20043;-81
2022/10/29 07:04:23;;;;;;;9.00;4.10;;;;;;;;;;5059497;28;20032;-81
2022/10/29 07:06:48;;;;;;;7.68;4.03;;;;;;;;;;5075648;28;20491;-81
2022/10/29 07:09:14;;;;;;;11.60;4.18;;;;;;;;;;5076102;28;20036;-81
2022/10/29 07:11:39;;;;;;;13.63;4.65;;;;;;;;;;5058279;28;20036;-80
2022/10/29 07:14:07;;;;;;;13.48;4.55;;;;;;;;;;5041986;28;20021;-80
2022/10/29 07:16:32;;;;;;;7.22;3.90;;;;;;;;;;5058978;28;20215;-81
2022/10/29 07:18:58;;;;;;;10.77;4.53;;;;;;;;;;5076879;28;20034;-81
2022/10/29 07:21:23;;;;;;;9.70;4.22;;;;;;;;;;5075732;28;20024;-81
2022/10/29 07:23:49;;;;;;;11.88;4.10;;;;;;;;;;5074989;28;20036;-82
2022/10/29 07:26:14;;;;;;;22.95;5.50;;;;;;;;;;5076304;28;20032;-83
2022/10/29 07:28:39;;;;;;;15.15;4.82;;;;;;;;;;5076355;28;20049;-81
2022/10/29 07:31:06;;;;;;;13.35;4.97;;;;;;;;;;5073408;28;20051;-79
2022/10/29 07:33:32;;;;;;;14.68;5.65;;;;;;;;;;5074205;28;20070;-81
2022/10/29 07:35:57;;;;;;;18.98;4.85;;;;;;;;;;5074022;28;20542;-81
2022/10/29 07:38:23;;;;;;;14.15;4.57;;;;;;;;;;5074164;28;20028;-80
2022/10/29 07:40:50;;;;;;;10.60;4.63;;;;;;;;;;5057144;28;20115;-81
2022/10/29 07:43:16;;;;;;;11.00;4.85;;;;;;;;;;5057745;28;20491;-81
2022/10/29 07:45:43;;;;;;;8.55;4.03;;;;;;;;;;5075254;28;20036;-82
2022/10/29 07:48:08;;;;;;;11.48;4.60;;;;;;;;;;5075369;28;20024;-81
2022/10/29 07:50:35;;;;;;;12.13;4.80;;;;;;;;;;5058946;28;20033;-80
2022/10/29 07:53:01;;;;;;;11.95;4.70;;;;;;;;;;5058271;28;20031;-80
2022/10/29 07:55:26;;;;;;;19.50;5.00;;;;;;;;;;5074997;28;20028;-80
2022/10/29 07:58:01;;;;;;;11.80;5.07;;;;;;;;;;5075183;28;20385;-80
2022/10/29 08:00:31;;;;;;;14.40;4.70;;;;;;;;;;5074389;28;20074;-80
2022/10/29 08:02:57;;;;;;;9.07;4.45;;;;;;;;;;5074416;28;20063;-80
2022/10/29 08:05:24;;;;;;;12.10;5.07;;;;;;;;;;5057916;28;20052;-80
2022/10/29 08:07:52;;;;;;;12.68;4.53;;;;;;;;;;5074742;28;20024;-80
2022/10/29 08:10:17;;;;;;;10.77;4.93;;;;;;;;;;5075080;28;20032;-81
2022/10/29 08:12:54;;;;;;;12.65;4.70;;;;;;;;;;5076544;28;20036;-80
2022/10/29 08:15:20;;;;;;;14.10;4.68;;;;;;;;;;5057817;28;20028;-80
2022/10/29 08:17:46;;;;;;;12.80;4.65;;;;;;;;;;5058439;28;20021;-81
2022/10/29 08:20:13;;;;;;;11.15;4.68;;;;;;;;;;5058387;28;20028;-81
2022/10/29 08:22:38;;;;;;;11.15;5.30;;;;;;;;;;5056764;28;20036;-80
2022/10/29 08:25:04;;;;;;;9.30;4.88;;;;;;;;;;5056957;28;20028;-80
2022/10/29 08:27:29;;;;;;;12.05;4.57;;;;;;;;;;5073609;28;20028;-80
2022/10/29 08:29:54;;;;;;;9.70;4.70;;;;;;;;;;5074660;28;20479;-80
2022/10/29 08:32:20;;;;;;;10.07;4.25;;;;;;;;;;5056428;28;20442;-80
2022/10/29 08:34:45;;;;;;;13.55;5.13;;;;;;;;;;5073335;28;20037;-79
2022/10/29 08:37:10;;;;;;;9.10;4.50;;;;;;;;;;5074459;28;20032;-80
2022/10/29 08:39:36;;;;;;;10.50;4.55;;;;;;;;;;5040631;28;20479;-80
2022/10/29 08:42:28;;;;;;;11.95;5.10;;;;;;;;;;5075137;28;20059;-80
2022/10/29 08:45:05;;;;;;;8.60;4.60;;;;;;;;;;5076302;28;20040;-80
2022/10/29 08:47:54;;;;;;;11.65;4.13;;;;;;;;;;5075663;28;20491;-80
2022/10/29 08:50:27;;;;;;;6.55;4.15;;;;;;;;;;5075777;28;20036;-80
2022/10/29 08:52:53;;;;;;;7.55;4.75;;;;;;;;;;5072465;28;20017;-82
2022/10/29 08:55:21;;;;;;;10.95;5.22;;;;;;;;;;5055577;28;20086;-80
2022/10/29 08:57:57;;;;;;;10.50;4.68;;;;;;;;;;5055419;28;20031;-80
2022/10/29 09:00:35;;;;;;;14.50;5.32;;;;;;;;;;5071963;28;20403;-80
2022/10/29 09:03:01;;;;;;;9.88;4.45;;;;;;;;;;5071999;28;20047;-80
2022/10/29 09:05:44;;;;;;;15.35;4.60;;;;;;;;;;5072154;28;20372;-80
2022/10/29 09:08:44;;;;;;;11.63;4.53;;;;;;;;;;5072642;28;20028;-81
2022/10/29 09:11:27;;;;;;;12.35;4.15;;;;;;;;;;5073279;28;20483;-82
2022/10/29 09:14:11;;;;;;;8.80;4.47;;;;;;;;;;5071907;28;20036;-80
2022/10/29 09:16:42;;;;;;;10.50;4.05;;;;;;;;;;5072188;28;20040;-83
2022/10/29 09:19:16;;;;;;;14.20;5.13;;;;;;;;;;5074408;28;20027;-82
2022/10/29 09:21:55;;;;;;;20.42;5.85;;;;;;;;;;5072723;28;20021;-81
2022/10/29 09:24:42;;;;;;;19.77;6.78;;;;;;;;;;5072694;28;20052;-81
2022/10/29 09:27:16;;;;;;;21.45;6.63;;;;;;;;;;5055737;28;20028;-80
2022/10/29 09:30:26;;;;;;;21.10;6.20;;;;;;;;;;5056669;28;20048;-81
2022/10/29 09:32:58;;;;;;;20.42;6.82;;;;;;;;;;5029763;28;20037;-80
2022/10/29 09:35:36;;;;;;;16.35;6.57;;;;;;;;;;5073872;28;20051;-80
2022/10/29 09:38:07;;;;;;;13.85;6.10;;;;;;;;;;5072465;28;20023;-80
2022/10/29 09:40:35;;;;;;;20.63;7.13;;;;;;;;;;5072737;28;20502;-79
2022/10/29 09:43:18;;;;;;;15.45;5.65;;;;;;;;;;5073444;28;20127;-79
2022/10/29 09:45:58;;;;;;;29.50;6.70;;;;;;;;;;5076477;28;20543;-79
2022/10/29 09:49:02;;;;;;;16.75;6.30;;;;;;;;;;5075135;28;20410;-79
2022/10/29 09:51:39;;;;;;;15.40;6.78;;;;;;;;;;5025747;28;20490;-78
2022/10/29 09:54:05;;;;;;;18.45;7.15;;;;;;;;;;5075068;28;20024;-79
2022/10/29 09:56:30;;;;;;;20.58;6.75;;;;;;;;;;5074734;28;20439;-78
2022/10/29 09:59:30;;;;;;;15.85;6.28;;;;;;;;;;5077022;28;20123;-79
2022/10/29 10:01:57;;;;;;;21.48;6.97;;;;;;;;;;5048047;28;20044;-79
2022/10/29 10:04:36;;;;;;;15.88;5.50;;;;;;;;;;5079001;28;20067;-79
2022/10/29 10:07:09;;;;;;;18.25;6.00;;;;;;;;;;5083120;28;20020;-78
2022/10/29 10:09:53;;;;;;;24.52;7.00;;;;;;;;;;5083912;28;20020;-78
2022/10/29 10:12:19;;;;;;;;;;;;;;;;;;5076813;28;20032;-79
2022/10/29 10:14:46;;;;;;;17.48;5.95;;;;;;;;;;5076078;28;19909;-78
2022/10/29 10:17:12;;;;;;;18.55;6.18;;;;;;;;;;5075975;28;20053;-79
2022/10/29 10:19:44;;;;;;;12.40;5.20;;;;;;;;;;5059497;28;20060;-78
2022/10/29 10:22:21;;;;;;;19.65;6.18;;;;;;;;;;5075684;28;20027;-79
2022/10/29 10:24:46;;;;;;;12.65;5.50;;;;;;;;;;5076270;28;20074;-78
2022/10/29 10:27:18;;;;;;;14.07;5.70;;;;;;;;;;5077985;28;20024;-79
2022/10/29 10:30:04;;;;;;;15.30;5.43;;;;;;;;;;5077122;28;20040;-79
2022/10/29 10:32:30;;;;;;;14.27;5.32;;;;;;;;;;5077154;28;20426;-78
2022/10/29 10:34:55;;;;;;;14.25;5.40;;;;;;;;;;5075864;28;20467;-78
2022/10/29 10:37:21;;;;;;;13.68;4.65;;;;;;;;;;5061026;28;20032;-78
2022/10/29 10:39:54;;;;;;;9.43;5.18;;;;;;;;;;5076047;28;20021;-78
2022/10/29 10:42:43;;;;;;;16.90;5.00;;;;;;;;;;5059436;28;20036;-78
2022/10/29 10:45:16;;;;;;;9.82;5.25;;;;;;;;;;5076560;28;20040;-79
2022/10/29 10:47:46;;;;;;;;;;;;;;;;;;5060730;28;20479;-78
2022/10/29 10:50:18;;;;;;;11.85;4.90;;;;;;;;;;5075579;28;19908;-78
2022/10/29 10:52:44;;;;;;;18.50;5.15;;;;;;;;;;5076537;28;20066;-79
2022/10/29 10:55:23;;;;;;;14.55;4.45;;;;;;;;;;5075163;28;20024;-78
2022/10/29 10:57:55;;;;;;;14.95;5.10;;;;;;;;;;5076412;28;20030;-78
2022/10/29 11:00:21;;;;;;;10.70;4.70;;;;;;;;;;5076142;28;20437;-78
2022/10/29 11:03:16;;;;;;;9.98;4.20;;;;;;;;;;5077686;28;20037;-79
2022/10/29 11:06:33;;;;;;;13.02;4.40;;;;;;;;;;5062076;28;20059;-80
2022/10/29 11:09:12;;;;;;;10.18;4.07;;;;;;;;;;5034796;28;20033;-79
2022/10/29 11:12:08;;;;;;;10.90;4.25;;;;;;;;;;5057741;28;20037;-80
2022/10/29 11:15:01;;;;;;;10.52;4.35;;;;;;;;;;5058574;28;20032;-80
2022/10/29 11:17:30;;;;;;;11.38;3.83;;;;;;;;;;5076154;28;20025;-79
2022/10/29 11:20:00;;;;;;;8.13;3.90;;;;;;;;;;5075266;28;20031;-80
2022/10/29 11:22:26;;;;;;;8.80;3.97;;;;;;;;;;5057779;28;20447;-80
2022/10/29 11:25:30;;;;;;;14.60;4.75;;;;;;;;;;5075366;28;20075;-80
2022/10/29 11:28:32;;;;;;;10.75;4.32;;;;;;;;;;5008891;28;20483;-80
2022/10/29 11:31:04;;;;;;;12.35;4.88;;;;;;;;;;5075787;28;20028;-80
2022/10/29 11:33:43;;;;;;;12.15;4.57;;;;;;;;;;5058379;28;20074;-80
2022/10/29 11:36:19;;;;;;;11.25;4.15;;;;;;;;;;5057922;28;20113;-80
2022/10/29 11:38:54;;;;;;;9.07;4.20;;;;;;;;;;5058062;28;20027;-79
2022/10/29 11:41:58;;;;;;;12.65;4.32;;;;;;;;;;5058199;28;20029;-81
2022/10/29 11:44:24;;;;;;;11.95;4.05;;;;;;;;;;4976700;28;20093;-85
2022/10/29 11:47:11;;;;;;;9.80;4.38;;;;;;;;;;4982450;28;20038;-85
2022/10/29 11:50:05;;;;;;;10.55;4.63;;;;;;;;;;4992685;28;20554;-85
2022/10/29 11:52:36;;;;;;;13.15;4.57;;;;;;;;;;5015086;28;20053;-85
2022/10/29 11:55:39;;;;;;;13.05;4.70;;;;;;;;;;4979863;28;20144;-82
2022/10/29 11:58:18;;;;;;;13.55;4.72;;;;;;;;;;4995475;28;20026;-85
2022/10/29 12:00:58;;;;;;;17.48;5.28;;;;;;;;;;4978432;28;20058;-84
2022/10/29 12:03:45;;;;;;;15.80;5.03;;;;;;;;;;4979493;28;20521;-84
2022/10/29 12:06:21;;;;;;;12.05;4.45;;;;;;;;;;4997426;28;20117;-84
2022/10/29 12:08:55;;;;;;;14.45;4.70;;;;;;;;;;4977825;28;20113;-85
2022/10/29 12:11:26;;;;;;;14.68;4.85;;;;;;;;;;4994066;28;20084;-86
2022/10/29 12:14:21;;;;;;;20.23;4.85;;;;;;;;;;4977626;28;20395;-86
2022/10/29 12:16:47;;;;;;;9.70;4.88;;;;;;;;;;5075056;28;20391;-82
2022/10/29 12:19:31;;;;;;;17.15;5.00;;;;;;;;;;5073434;28;20028;-81
2022/10/29 12:22:02;;;;;;;9.13;4.80;;;;;;;;;;5073724;28;20429;-80
2022/10/29 12:25:07;;;;;;;9.75;4.75;;;;;;;;;;5074631;28;20482;-80
2022/10/29 12:27:47;;;;;;;13.20;5.15;;;;;;;;;;5074586;28;20033;-82
2022/10/29 12:30:15;;;;;;;11.63;4.78;;;;;;;;;;5073557;28;20475;-81
2022/10/29 12:33:02;;;;;;;13.32;4.72;;;;;;;;;;5073570;28;20035;-81
2022/10/29 12:35:28;;;;;;;13.07;4.97;;;;;;;;;;5073217;28;20028;-82
2022/10/29 12:38:00;;;;;;;15.27;4.50;;;;;;;;;;5073419;28;20112;-82
2022/10/29 12:40:32;;;;;;;7.07;4.30;;;;;;;;;;5073148;28;20100;-82
2022/10/29 12:43:03;;;;;;;12.30;4.53;;;;;;;;;;5073063;28;20040;-81
2022/10/29 12:45:40;;;;;;;13.10;4.72;;;;;;;;;;5071038;28;20024;-85
2022/10/29 12:48:31;;;;;;;12.27;4.75;;;;;;;;;;5072417;28;20085;-86
2022/10/29 12:51:07;;;;;;;18.25;4.82;;;;;;;;;;5073976;28;20035;-80
2022/10/29 12:53:41;;;;;;;10.32;4.35;;;;;;;;;;5073929;28;20024;-80
2022/10/29 12:56:07;;;;;;;17.20;5.32;;;;;;;;;;5072524;28;20028;-81
2022/10/29 12:58:49;;;;;;;15.77;4.75;;;;;;;;;;5056022;28;20034;-81
2022/10/29 13:01:27;;;;;;;10.73;4.35;;;;;;;;;;5072775;28;20429;-82
2022/10/29 13:03:53;;;;;;;10.50;4.53;;;;;;;;;;5073894;28;20032;-81
2022/10/29 13:06:40;;;;;;;8.45;4.03;;;;;;;;;;5072575;28;20028;-81
2022/10/29 13:09:34;;;;;;;11.52;4.88;;;;;;;;;;5072408;28;20029;-81
2022/10/29 13:12:04;;;;;;;8.35;4.65;;;;;;;;;;5072452;28;20020;-81
2022/10/29 13:14:34;;;;;;;10.88;4.47;;;;;;;;;;5073135;28;20032;-81
2022/10/29 13:17:02;;;;;;;11.75;4.90;;;;;;;;;;5073614;28;20028;-81
2022/10/29 13:19:38;;;;;;;10.63;4.70;;;;;;;;;;5072628;28;20085;-81
2022/10/29 13:22:49;;;;;;;11.90;4.05;;;;;;;;;;5072383;28;20024;-81
2022/10/29 13:25:33;;;;;;;10.43;4.72;;;;;;;;;;5064302;28;20036;-80
2022/10/29 13:28:00;;;;;;;9.57;4.68;;;;;;;;;;5073862;28;20020;-82
2022/10/29 13:30:27;;;;;;;11.93;4.63;;;;;;;;;;5055477;28;20032;-81
2022/10/29 13:32:54;;;;;;;13.20;4.20;;;;;;;;;;5055434;28;20048;-80
2022/10/29 13:35:22;;;;;;;13.07;4.38;;;;;;;;;;5072021;28;20107;-80
2022/10/29 13:37:52;;;;;;;10.35;4.30;;;;;;;;;;5072424;28;20024;-80
2022/10/29 13:40:21;;;;;;;10.77;4.18;;;;;;;;;;5072179;28;20024;-80
2022/10/29 13:43:14;;;;;;;13.20;4.30;;;;;;;;;;5073537;28;20382;-81
2022/10/29 13:45:45;;;;;;;11.75;4.40;;;;;;;;;;5072664;28;20076;-81
2022/10/29 13:48:18;;;;;;;10.43;4.65;;;;;;;;;;5072096;28;20550;-81
2022/10/29 13:50:48;;;;;;;10.40;4.45;;;;;;;;;;5072425;28;20078;-80
2022/10/29 13:53:14;;;;;;;9.32;4.30;;;;;;;;;;5073656;28;20043;-81
2022/10/29 13:55:43;;;;;;;12.10;4.85;;;;;;;;;;5072693;28;20036;-81
2022/10/29 13:58:16;;;;;;;15.77;4.13;;;;;;;;;;5073267;28;20024;-81
2022/10/29 14:00:43;;;;;;;11.85;4.50;;;;;;;;;;5055481;28;20043;-81
2022/10/29 14:03:18;;;;;;;10.13;4.85;;;;;;;;;;5071892;28;20040;-81
2022/10/29 14:05:49;;;;;;;9.43;4.15;;;;;;;;;;5072276;28;20032;-81
2022/10/29 14:08:18;;;;;;;10.82;4.53;;;;;;;;;;5073645;28;20052;-81
2022/10/29 14:10:47;;;;;;;10.57;4.25;;;;;;;;;;5072271;28;20036;-81
2022/10/29 14:13:18;;;;;;;9.40;4.55;;;;;;;;;;5072764;28;20355;-81
2022/10/29 14:16:05;;;;;;;11.48;4.53;;;;;;;;;;5071792;28;20075;-80
2022/10/29 14:18:37;;;;;;;8.23;4.10;;;;;;;;;;5071739;28;20047;-80
2022/10/29 14:21:05;;;;;;;9.23;4.68;;;;;;;;;;5071864;28;20517;-80
2022/10/29 14:23:31;;;;;;;8.55;4.32;;;;;;;;;;5055037;28;20115;-81
2022/10/29 14:25:59;;;;;;;10.07;4.32;;;;;;;;;;5055249;28;20025;-81
2022/10/29 14:28:29;;;;;;;9.48;4.22;;;;;;;;;;5054980;28;20052;-80
2022/10/29 14:31:10;;;;;;;6.93;3.75;;;;;;;;;;5072283;28;20027;-80
2022/10/29 14:33:37;;;;;;;7.13;3.97;;;;;;;;;;5071662;28;20455;-80
2022/10/29 14:36:07;;;;;;;8.43;4.15;;;;;;;;;;5054897;28;20036;-80
2022/10/29 14:38:50;;;;;;;8.88;4.13;;;;;;;;;;5071712;28;20020;-82
2022/10/29 14:41:15;;;;;;;7.22;4.30;;;;;;;;;;5071817;28;20025;-83
2022/10/29 14:43:42;;;;;;;8.73;4.30;;;;;;;;;;5072326;28;20129;-82
2022/10/29 14:46:21;;;;;;;8.75;4.20;;;;;;;;;;5074554;28;20033;-83
2022/10/29 14:49:15;;;;;;;12.82;4.00;;;;;;;;;;5059316;28;20036;-84
2022/10/29 14:51:47;;;;;;;;;;;;;;;;;;5076099;28;20040;-83
2022/10/29 14:54:18;;;;;;;8.45;3.70;;;;;;;;;;5076040;28;19908;-82
2022/10/29 14:56:47;;;;;;;14.88;4.80;;;;;;;;;;5075959;28;20029;-82
2022/10/29 14:59:17;;;;;;;12.45;4.32;;;;;;;;;;5058733;28;20402;-82
2022/10/29 15:01:49;;;;;;;13.35;4.00;;;;;;;;;;5058788;28;20032;-82
2022/10/29 15:04:20;;;;;;;9.77;4.50;;;;;;;;;;5075116;28;20024;-82